sensor_id;sensor_type;location;lat;lon;timestamp;pressure;altitude;pressure_sealevel;temperature;humidity
7940;BME280;4015;48.888;9.226;2023-03-01T00:01:47;155337.28;;;0.32;72.11
7940;BME280;4015;48.888;9.226;2023-03-01T00:04:13;155344.88;;;0.35;72.27
7940;BME280;4015;48.888;9.226;2023-03-01T00:06:38;155352.44;;;0.38;71.61
7940;BME280;4015;48.888;9.226;2023-03-01T00:09:04;155362.63;;;0.42;71.77
7940;BME280;4015;48.888;9.226;2023-03-01T00:11:30;155386.75;;;0.51;71.53
7940;BME280;4015;48.888;9.226;2023-03-01T00:13:58;155363.88;;;0.42;71.75
7940;BME280;4015;48.888;9.226;2023-03-01T00:16:27;155357.56;;;0.40;72.37
7940;BME280;4015;48.888;9.226;2023-03-01T00:18:54;155353.75;;;0.38;71.71
7940;BME280;4015;48.888;9.226;2023-03-01T00:21:20;155366.41;;;0.43;72.09
7940;BME280;4015;48.888;9.226;2023-03-01T00:23:47;155376.56;;;0.47;72.01
7940;BME280;4015;48.888;9.226;2023-03-01T00:26:15;155338.53;;;0.32;71.94
7940;BME280;4015;48.888;9.226;2023-03-01T00:28:41;155348.66;;;0.36;71.74
7940;BME280;4015;48.888;9.226;2023-03-01T00:31:13;155369.00;;;0.44;71.93
7940;BME280;4015;48.888;9.226;2023-03-01T00:33:39;155362.63;;;0.42;71.84
7940;BME280;4015;48.888;9.226;2023-03-01T00:36:05;155358.81;;;0.40;72.06
7940;BME280;4015;48.888;9.226;2023-03-01T00:38:35;155334.69;;;0.31;72.33
7940;BME280;4015;48.888;9.226;2023-03-01T00:41:05;155334.69;;;0.31;72.64
7940;BME280;4015;48.888;9.226;2023-03-01T00:43:31;155300.47;;;0.17;72.96
7940;BME280;4015;48.888;9.226;2023-03-01T00:46:05;155276.41;;;0.07;73.19
7940;BME280;4015;48.888;9.226;2023-03-01T00:48:31;155268.78;;;0.04;73.75
7940;BME280;4015;48.888;9.226;2023-03-01T00:50:56;155256.06;;;-0.01;73.40
7940;BME280;4015;48.888;9.226;2023-03-01T00:53:22;155230.75;;;-0.11;74.11
7940;BME280;4015;48.888;9.226;2023-03-01T00:55:47;155193.94;;;-0.26;74.74
7940;BME280;4015;48.888;9.226;2023-03-01T00:58:12;155215.53;;;-0.17;74.49
7940;BME280;4015;48.888;9.226;2023-03-01T01:00:38;155219.31;;;-0.16;74.48
7940;BME280;4015;48.888;9.226;2023-03-01T01:03:03;155210.44;;;-0.19;74.20
7940;BME280;4015;48.888;9.226;2023-03-01T01:05:28;155223.13;;;-0.14;74.17
7940;BME280;4015;48.888;9.226;2023-03-01T01:07:54;155234.53;;;-0.10;74.38
7940;BME280;4015;48.888;9.226;2023-03-01T01:10:19;155223.13;;;-0.14;74.80
7940;BME280;4015;48.888;9.226;2023-03-01T01:12:45;155223.13;;;-0.14;74.69
7940;BME280;4015;48.888;9.226;2023-03-01T01:15:10;155207.91;;;-0.20;74.74
7940;BME280;4015;48.888;9.226;2023-03-01T01:17:38;155233.28;;;-0.10;74.82
7940;BME280;4015;48.888;9.226;2023-03-01T01:20:04;155234.53;;;-0.10;74.38
7940;BME280;4015;48.888;9.226;2023-03-01T01:22:29;155243.44;;;-0.06;74.63
7940;BME280;4015;48.888;9.226;2023-03-01T01:24:55;155249.75;;;-0.04;74.25
7940;BME280;4015;48.888;9.226;2023-03-01T01:27:20;155272.56;;;0.06;74.00
7940;BME280;4015;48.888;9.226;2023-03-01T01:29:45;155276.41;;;0.07;73.83
7940;BME280;4015;48.888;9.226;2023-03-01T01:32:11;155258.66;;;0.00;73.44
7940;BME280;4015;48.888;9.226;2023-03-01T01:34:36;155251.03;;;-0.03;74.23
7940;BME280;4015;48.888;9.226;2023-03-01T01:37:01;155240.88;;;-0.07;73.95
7940;BME280;4015;48.888;9.226;2023-03-01T01:39:28;155249.75;;;-0.04;73.75
7940;BME280;4015;48.888;9.226;2023-03-01T01:41:53;155242.13;;;-0.07;74.25
7940;BME280;4015;48.888;9.226;2023-03-01T01:44:23;155234.53;;;-0.10;74.75
7940;BME280;4015;48.888;9.226;2023-03-01T01:46:53;155245.97;;;-0.05;74.39
7940;BME280;4015;48.888;9.226;2023-03-01T01:54:40;155215.53;;;-0.17;74.52
7940;BME280;4015;48.888;9.226;2023-03-01T01:57:10;155229.50;;;-0.12;74.47
7940;BME280;4015;48.888;9.226;2023-03-01T01:59:38;155237.06;;;-0.09;74.68
7940;BME280;4015;48.888;9.226;2023-03-01T02:02:04;155245.97;;;-0.05;74.82
7940;BME280;4015;48.888;9.226;2023-03-01T02:04:31;155244.69;;;-0.06;74.67
7940;BME280;4015;48.888;9.226;2023-03-01T02:07:01;155249.75;;;-0.04;74.77
7940;BME280;4015;48.888;9.226;2023-03-01T02:09:30;155281.47;;;0.09;74.27
7940;BME280;4015;48.888;9.226;2023-03-01T02:11:55;155300.47;;;0.17;74.05
7940;BME280;4015;48.888;9.226;2023-03-01T02:14:21;155360.09;;;0.41;73.42
7940;BME280;4015;48.888;9.226;2023-03-01T02:16:46;155369.00;;;0.44;73.29
7940;BME280;4015;48.888;9.226;2023-03-01T02:19:33;155386.75;;;0.51;72.68
7940;BME280;4015;48.888;9.226;2023-03-01T02:22:08;155380.38;;;0.49;72.63
7940;BME280;4015;48.888;9.226;2023-03-01T02:30:22;155436.19;;;0.71;72.27
7940;BME280;4015;48.888;9.226;2023-03-01T02:32:48;155437.47;;;0.72;72.19
7940;BME280;4015;48.888;9.226;2023-03-01T02:35:16;155447.63;;;0.76;72.66
7940;BME280;4015;48.888;9.226;2023-03-01T02:37:43;155462.88;;;0.82;72.09
7940;BME280;4015;48.888;9.226;2023-03-01T02:40:13;155459.00;;;0.80;72.36
7940;BME280;4015;48.888;9.226;2023-03-01T02:42:56;155460.28;;;0.81;72.27
7940;BME280;4015;48.888;9.226;2023-03-01T02:45:22;155472.97;;;0.86;71.87
7940;BME280;4015;48.888;9.226;2023-03-01T02:47:48;155488.22;;;0.92;72.08
7940;BME280;4015;48.888;9.226;2023-03-01T02:53:41;155483.16;;;0.90;72.43
7940;BME280;4015;48.888;9.226;2023-03-01T02:56:10;155485.69;;;0.91;72.35
7940;BME280;4015;48.888;9.226;2023-03-01T02:58:40;155484.41;;;0.91;72.76
7940;BME280;4015;48.888;9.226;2023-03-01T03:01:13;155495.84;;;0.95;72.41
7940;BME280;4015;48.888;9.226;2023-03-01T03:03:41;155484.41;;;0.91;72.80
7940;BME280;4015;48.888;9.226;2023-03-01T03:06:07;155511.06;;;1.01;71.84
7940;BME280;4015;48.888;9.226;2023-03-01T03:08:32;155504.69;;;0.99;71.82
7940;BME280;4015;48.888;9.226;2023-03-01T03:10:57;155498.38;;;0.96;71.82
7940;BME280;4015;48.888;9.226;2023-03-01T03:13:23;155466.66;;;0.84;72.24
7940;BME280;4015;48.888;9.226;2023-03-01T03:15:53;155472.97;;;0.86;72.01
7940;BME280;4015;48.888;9.226;2023-03-01T03:18:19;155475.50;;;0.87;72.57
7940;BME280;4015;48.888;9.226;2023-03-01T03:20:45;155489.47;;;0.93;72.78
7940;BME280;4015;48.888;9.226;2023-03-01T03:23:10;155453.97;;;0.78;73.33
7940;BME280;4015;48.888;9.226;2023-03-01T03:25:36;155508.50;;;1.00;73.62
7940;BME280;4015;48.888;9.226;2023-03-01T03:28:03;155489.47;;;0.93;73.41
7940;BME280;4015;48.888;9.226;2023-03-01T03:30:35;155511.06;;;1.01;72.36
7940;BME280;4015;48.888;9.226;2023-03-01T03:33:00;155532.63;;;1.10;72.33
7940;BME280;4015;48.888;9.226;2023-03-01T03:37:51;155503.44;;;0.98;72.47
7940;BME280;4015;48.888;9.226;2023-03-01T03:40:35;155538.97;;;1.13;72.13
7940;BME280;4015;48.888;9.226;2023-03-01T03:43:05;155546.59;;;1.16;72.30
7940;BME280;4015;48.888;9.226;2023-03-01T03:45:31;155518.66;;;1.04;72.34
7940;BME280;4015;48.888;9.226;2023-03-01T03:48:02;155522.47;;;1.06;72.06
7940;BME280;4015;48.888;9.226;2023-03-01T03:50:28;155537.69;;;1.12;72.69
7940;BME280;4015;48.888;9.226;2023-03-01T03:52:54;155545.31;;;1.15;72.56
7940;BME280;4015;48.888;9.226;2023-03-01T03:55:19;155530.09;;;1.09;72.78
7940;BME280;4015;48.888;9.226;2023-03-01T03:57:47;155538.97;;;1.13;72.33
7940;BME280;4015;48.888;9.226;2023-03-01T04:00:18;155559.28;;;1.21;72.40
7940;BME280;4015;48.888;9.226;2023-03-01T04:02:44;155560.56;;;1.21;72.24
7940;BME280;4015;48.888;9.226;2023-03-01T04:05:12;155555.44;;;1.19;71.89
7940;BME280;4015;48.888;9.226;2023-03-01T04:07:38;155555.44;;;1.19;72.62
7940;BME280;4015;48.888;9.226;2023-03-01T04:10:10;155582.13;;;1.30;72.10
7940;BME280;4015;48.888;9.226;2023-03-01T04:12:36;155570.69;;;1.25;71.71
7940;BME280;4015;48.888;9.226;2023-03-01T04:15:06;155569.41;;;1.25;71.67
7940;BME280;4015;48.888;9.226;2023-03-01T04:17:43;155550.38;;;1.17;72.24
7940;BME280;4015;48.888;9.226;2023-03-01T04:20:10;155575.78;;;1.27;72.11
7940;BME280;4015;48.888;9.226;2023-03-01T04:22:37;155599.88;;;1.37;71.31
7940;BME280;4015;48.888;9.226;2023-03-01T04:25:03;155568.16;;;1.24;72.01
7940;BME280;4015;48.888;9.226;2023-03-01T04:27:30;155599.88;;;1.37;72.11
7940;BME280;4015;48.888;9.226;2023-03-01T04:29:55;155611.31;;;1.42;71.39
7940;BME280;4015;48.888;9.226;2023-03-01T04:32:20;155593.56;;;1.34;71.80
7940;BME280;4015;48.888;9.226;2023-03-01T04:34:46;155615.13;;;1.43;71.37
7940;BME280;4015;48.888;9.226;2023-03-01T04:37:11;155635.47;;;1.51;71.04
7940;BME280;4015;48.888;9.226;2023-03-01T04:39:36;155603.72;;;1.39;71.67
7940;BME280;4015;48.888;9.226;2023-03-01T04:42:10;155605.00;;;1.39;71.26
7940;BME280;4015;48.888;9.226;2023-03-01T04:44:36;155601.16;;;1.38;71.74
7940;BME280;4015;48.888;9.226;2023-03-01T04:47:01;155620.22;;;1.45;70.96
7940;BME280;4015;48.888;9.226;2023-03-01T04:49:26;155601.16;;;1.38;71.58
7940;BME280;4015;48.888;9.226;2023-03-01T04:51:51;155626.53;;;1.48;71.04
7940;BME280;4015;48.888;9.226;2023-03-01T04:54:17;155602.41;;;1.38;71.03
7940;BME280;4015;48.888;9.226;2023-03-01T04:56:42;155627.81;;;1.48;71.35
7940;BME280;4015;48.888;9.226;2023-03-01T04:59:07;155644.31;;;1.55;71.10
7940;BME280;4015;48.888;9.226;2023-03-01T05:01:35;155649.38;;;1.57;71.12
7940;BME280;4015;48.888;9.226;2023-03-01T05:04:01;155658.28;;;1.60;70.59
7940;BME280;4015;48.888;9.226;2023-03-01T05:06:28;155615.13;;;1.43;70.88
7940;BME280;4015;48.888;9.226;2023-03-01T05:08:53;155602.41;;;1.38;71.27
7940;BME280;4015;48.888;9.226;2023-03-01T05:11:19;155650.69;;;1.57;70.33
7940;BME280;4015;48.888;9.226;2023-03-01T05:13:44;155690.03;;;1.73;69.51
7940;BME280;4015;48.888;9.226;2023-03-01T05:16:10;155612.59;;;1.42;71.22
7940;BME280;4015;48.888;9.226;2023-03-01T05:18:36;155585.91;;;1.31;71.13
7940;BME280;4015;48.888;9.226;2023-03-01T05:21:05;155610.06;;;1.41;70.76
7940;BME280;4015;48.888;9.226;2023-03-01T05:23:32;155599.88;;;1.37;70.55
7940;BME280;4015;48.888;9.226;2023-03-01T05:26:02;155634.16;;;1.51;70.64
7940;BME280;4015;48.888;9.226;2023-03-01T05:28:29;155597.34;;;1.36;71.06
7940;BME280;4015;48.888;9.226;2023-03-01T05:30:56;155597.34;;;1.36;71.16
7940;BME280;4015;48.888;9.226;2023-03-01T05:33:22;155612.59;;;1.42;70.85
7940;BME280;4015;48.888;9.226;2023-03-01T05:35:48;155585.91;;;1.31;71.61
7940;BME280;4015;48.888;9.226;2023-03-01T05:38:15;155583.38;;;1.30;71.30
7940;BME280;4015;48.888;9.226;2023-03-01T05:40:42;155568.16;;;1.24;71.57
7940;BME280;4015;48.888;9.226;2023-03-01T05:43:08;155546.59;;;1.16;72.00
7940;BME280;4015;48.888;9.226;2023-03-01T05:45:36;155552.91;;;1.18;72.01
7940;BME280;4015;48.888;9.226;2023-03-01T05:48:02;155578.31;;;1.28;71.97
7940;BME280;4015;48.888;9.226;2023-03-01T05:50:29;155549.13;;;1.17;72.70
7940;BME280;4015;48.888;9.226;2023-03-01T05:53:03;155556.75;;;1.20;72.59
7940;BME280;4015;48.888;9.226;2023-03-01T05:55:31;155558.03;;;1.20;73.01
7940;BME280;4015;48.888;9.226;2023-03-01T05:58:01;155583.38;;;1.30;72.35
7940;BME280;4015;48.888;9.226;2023-03-01T06:00:28;155568.16;;;1.24;72.23
7940;BME280;4015;48.888;9.226;2023-03-01T06:02:55;155584.66;;;1.31;72.87
7940;BME280;4015;48.888;9.226;2023-03-01T06:05:20;155592.28;;;1.34;72.41
7940;BME280;4015;48.888;9.226;2023-03-01T06:07:46;155575.78;;;1.27;71.93
7940;BME280;4015;48.888;9.226;2023-03-01T06:10:12;155587.19;;;1.32;72.33
7940;BME280;4015;48.888;9.226;2023-03-01T06:12:39;155602.41;;;1.38;71.97
7940;BME280;4015;48.888;9.226;2023-03-01T06:15:06;155564.34;;;1.23;72.08
7940;BME280;4015;48.888;9.226;2023-03-01T06:17:33;155569.41;;;1.25;72.10
7940;BME280;4015;48.888;9.226;2023-03-01T06:20:08;155552.91;;;1.18;71.40
7940;BME280;4015;48.888;9.226;2023-03-01T06:22:33;155584.66;;;1.31;71.63
7940;BME280;4015;48.888;9.226;2023-03-01T06:24:59;155580.84;;;1.29;71.50
7940;BME280;4015;48.888;9.226;2023-03-01T06:27:24;155573.25;;;1.26;71.61
7940;BME280;4015;48.888;9.226;2023-03-01T06:29:49;155566.88;;;1.24;71.74
7940;BME280;4015;48.888;9.226;2023-03-01T06:32:15;155613.84;;;1.43;71.23
7940;BME280;4015;48.888;9.226;2023-03-01T06:34:40;155597.34;;;1.36;71.13
7940;BME280;4015;48.888;9.226;2023-03-01T06:37:07;155579.59;;;1.29;71.47
7940;BME280;4015;48.888;9.226;2023-03-01T06:39:32;155570.69;;;1.25;71.17
7940;BME280;4015;48.888;9.226;2023-03-01T06:41:58;155549.13;;;1.17;71.18
7940;BME280;4015;48.888;9.226;2023-03-01T06:44:24;155559.28;;;1.21;71.68
7940;BME280;4015;48.888;9.226;2023-03-01T06:46:49;155550.38;;;1.17;71.28
7940;BME280;4015;48.888;9.226;2023-03-01T06:49:14;155559.28;;;1.21;70.46
7940;BME280;4015;48.888;9.226;2023-03-01T06:51:41;155555.44;;;1.19;70.94
7940;BME280;4015;48.888;9.226;2023-03-01T06:54:06;155559.28;;;1.21;70.66
7940;BME280;4015;48.888;9.226;2023-03-01T06:56:32;155577.06;;;1.28;70.21
7940;BME280;4015;48.888;9.226;2023-03-01T06:58:58;155622.75;;;1.46;70.12
7940;BME280;4015;48.888;9.226;2023-03-01T07:01:24;155599.88;;;1.37;69.95
7940;BME280;4015;48.888;9.226;2023-03-01T07:03:49;155721.75;;;1.86;68.35
7940;BME280;4015;48.888;9.226;2023-03-01T07:06:14;155806.88;;;2.20;67.31
7940;BME280;4015;48.888;9.226;2023-03-01T07:08:40;155869.06;;;2.45;66.32
7940;BME280;4015;48.888;9.226;2023-03-01T07:11:05;155955.47;;;2.80;64.86
7940;BME280;4015;48.888;9.226;2023-03-01T07:13:31;156011.41;;;3.02;64.02
7940;BME280;4015;48.888;9.226;2023-03-01T07:15:56;155968.19;;;2.85;64.51
7940;BME280;4015;48.888;9.226;2023-03-01T07:18:22;156091.47;;;3.34;63.19
7940;BME280;4015;48.888;9.226;2023-03-01T07:20:47;156106.72;;;3.40;62.90
7940;BME280;4015;48.888;9.226;2023-03-01T07:23:13;155998.69;;;2.97;63.79
7940;BME280;4015;48.888;9.226;2023-03-01T07:25:38;155935.16;;;2.72;64.88
7940;BME280;4015;48.888;9.226;2023-03-01T07:28:03;155968.19;;;2.85;64.46
7940;BME280;4015;48.888;9.226;2023-03-01T07:30:29;156088.94;;;3.33;63.47
7940;BME280;4015;48.888;9.226;2023-03-01T07:32:56;156293.66;;;4.15;61.19
7940;BME280;4015;48.888;9.226;2023-03-01T07:35:23;156600.25;;;5.38;57.72
7940;BME280;4015;48.888;9.226;2023-03-01T07:37:48;156770.94;;;6.06;55.99
7940;BME280;4015;48.888;9.226;2023-03-01T07:40:13;157014.22;;;7.03;53.34
7940;BME280;4015;48.888;9.226;2023-03-01T07:42:39;157060.13;;;7.22;52.04
7940;BME280;4015;48.888;9.226;2023-03-01T07:45:05;157143.00;;;7.55;51.50
7940;BME280;4015;48.888;9.226;2023-03-01T07:47:32;157239.91;;;7.94;51.18
7940;BME280;4015;48.888;9.226;2023-03-01T07:49:57;157294.72;;;8.16;50.32
7940;BME280;4015;48.888;9.226;2023-03-01T07:52:22;157390.41;;;8.54;49.46
7940;BME280;4015;48.888;9.226;2023-03-01T07:54:48;157501.41;;;8.98;48.32
7940;BME280;4015;48.888;9.226;2023-03-01T07:57:13;157611.19;;;9.42;48.17
7940;BME280;4015;48.888;9.226;2023-03-01T07:59:38;157667.38;;;9.64;47.30
7940;BME280;4015;48.888;9.226;2023-03-01T08:02:05;157516.72;;;9.04;47.89
7940;BME280;4015;48.888;9.226;2023-03-01T08:04:32;157752.88;;;9.98;46.30
7940;BME280;4015;48.888;9.226;2023-03-01T08:06:58;157835.97;;;10.32;45.51
7940;BME280;4015;48.888;9.226;2023-03-01T08:09:23;157876.81;;;10.48;45.06
7940;BME280;4015;48.888;9.226;2023-03-01T08:11:48;157985.41;;;10.91;44.29
7940;BME280;4015;48.888;9.226;2023-03-01T08:14:14;157972.63;;;10.86;44.47
7940;BME280;4015;48.888;9.226;2023-03-01T08:16:39;157939.41;;;10.73;44.54
7940;BME280;4015;48.888;9.226;2023-03-01T08:19:09;158048.03;;;11.16;44.19
7940;BME280;4015;48.888;9.226;2023-03-01T08:21:35;158106.81;;;11.40;42.93
7940;BME280;4015;48.888;9.226;2023-03-01T08:24:02;158111.91;;;11.42;42.52
7940;BME280;4015;48.888;9.226;2023-03-01T08:26:27;158214.25;;;11.82;42.73
7940;BME280;4015;48.888;9.226;2023-03-01T08:28:53;158159.22;;;11.60;42.70
7940;BME280;4015;48.888;9.226;2023-03-01T08:31:19;158331.84;;;12.29;41.28
7940;BME280;4015;48.888;9.226;2023-03-01T08:33:46;158018.63;;;11.04;42.92
7940;BME280;4015;48.888;9.226;2023-03-01T08:36:16;158232.13;;;11.90;42.57
7940;BME280;4015;48.888;9.226;2023-03-01T08:38:41;158037.78;;;11.12;43.06
7940;BME280;4015;48.888;9.226;2023-03-01T08:41:07;158184.78;;;11.71;42.66
7940;BME280;4015;48.888;9.226;2023-03-01T08:43:32;158211.66;;;11.81;42.56
7940;BME280;4015;48.888;9.226;2023-03-01T08:45:58;158242.34;;;11.94;41.56
7940;BME280;4015;48.888;9.226;2023-03-01T08:48:23;158362.56;;;12.41;41.64
7940;BME280;4015;48.888;9.226;2023-03-01T08:50:48;158422.66;;;12.65;40.90
7940;BME280;4015;48.888;9.226;2023-03-01T08:53:14;158230.88;;;11.89;41.71
7940;BME280;4015;48.888;9.226;2023-03-01T08:55:39;158078.69;;;11.28;43.49
7940;BME280;4015;48.888;9.226;2023-03-01T08:58:05;158054.41;;;11.19;43.29
7940;BME280;4015;48.888;9.226;2023-03-01T09:00:30;158241.06;;;11.93;42.95
7940;BME280;4015;48.888;9.226;2023-03-01T09:02:55;158073.59;;;11.26;42.69
7940;BME280;4015;48.888;9.226;2023-03-01T09:05:21;158207.78;;;11.80;42.59
7940;BME280;4015;48.888;9.226;2023-03-01T09:07:46;158174.53;;;11.67;41.92
7940;BME280;4015;48.888;9.226;2023-03-01T09:10:11;158321.59;;;12.25;41.91
7940;BME280;4015;48.888;9.226;2023-03-01T09:12:37;158367.66;;;12.43;41.69
7940;BME280;4015;48.888;9.226;2023-03-01T09:15:02;158429.03;;;12.68;41.65
7940;BME280;4015;48.888;9.226;2023-03-01T09:17:27;158283.28;;;12.10;42.55
7940;BME280;4015;48.888;9.226;2023-03-01T09:19:53;158532.69;;;13.09;40.48
7940;BME280;4015;48.888;9.226;2023-03-01T09:22:18;158330.56;;;12.29;41.40
7940;BME280;4015;48.888;9.226;2023-03-01T09:24:43;158342.09;;;12.33;42.47
7940;BME280;4015;48.888;9.226;2023-03-01T09:27:09;158212.97;;;11.82;42.98
7940;BME280;4015;48.888;9.226;2023-03-01T09:29:36;158344.66;;;12.34;41.85
7940;BME280;4015;48.888;9.226;2023-03-01T09:32:02;158228.31;;;11.88;42.68
7940;BME280;4015;48.888;9.226;2023-03-01T09:34:27;158347.19;;;12.35;42.46
7940;BME280;4015;48.888;9.226;2023-03-01T09:36:52;158482.78;;;12.89;41.32
7940;BME280;4015;48.888;9.226;2023-03-01T09:39:18;158562.16;;;13.21;40.70
7940;BME280;4015;48.888;9.226;2023-03-01T09:44:25;158722.13;;;13.85;39.64
7940;BME280;4015;48.888;9.226;2023-03-01T09:46:52;158740.03;;;13.92;40.04
7940;BME280;4015;48.888;9.226;2023-03-01T09:49:21;158923.19;;;14.65;38.91
7940;BME280;4015;48.888;9.226;2023-03-01T09:54:54;159090.97;;;15.31;37.08
7940;BME280;4015;48.888;9.226;2023-03-01T09:57:47;159267.84;;;16.02;36.51
7940;BME280;4015;48.888;9.226;2023-03-01T10:03:12;159501.22;;;16.94;34.54
7940;BME280;4015;48.888;9.226;2023-03-01T10:08:40;159457.59;;;16.77;35.21
7940;BME280;4015;48.888;9.226;2023-03-01T10:11:28;159601.22;;;17.34;35.52
7940;BME280;4015;48.888;9.226;2023-03-01T10:14:03;159396.00;;;16.53;35.52
7940;BME280;4015;48.888;9.226;2023-03-01T10:19:24;159617.91;;;17.41;34.35
7940;BME280;4015;48.888;9.226;2023-03-01T10:21:51;159638.47;;;17.49;35.97
7940;BME280;4015;48.888;9.226;2023-03-01T10:24:19;159560.22;;;17.18;35.29
7940;BME280;4015;48.888;9.226;2023-03-01T10:27:03;159809.16;;;18.17;33.80
7940;BME280;4015;48.888;9.226;2023-03-01T10:29:34;159850.19;;;18.33;33.17
7940;BME280;4015;48.888;9.226;2023-03-01T10:32:03;159725.72;;;17.84;33.96
7940;BME280;4015;48.888;9.226;2023-03-01T10:34:32;159887.41;;;18.48;33.34
7940;BME280;4015;48.888;9.226;2023-03-01T10:37:18;159830.97;;;18.25;33.45
7940;BME280;4015;48.888;9.226;2023-03-01T10:40:02;159647.41;;;17.52;35.36
7940;BME280;4015;48.888;9.226;2023-03-01T10:42:35;159807.81;;;18.16;34.24
7940;BME280;4015;48.888;9.226;2023-03-01T10:45:39;159938.81;;;18.68;33.06
7940;BME280;4015;48.888;9.226;2023-03-01T10:50:40;160063.34;;;19.18;32.69
7940;BME280;4015;48.888;9.226;2023-03-01T10:53:19;160000.44;;;18.93;33.27
7940;BME280;4015;48.888;9.226;2023-03-01T10:55:46;159945.22;;;18.71;32.32
7940;BME280;4015;48.888;9.226;2023-03-01T11:00:58;160263.72;;;19.97;32.20
7940;BME280;4015;48.888;9.226;2023-03-01T11:03:34;160196.94;;;19.71;31.28
7940;BME280;4015;48.888;9.226;2023-03-01T11:08:45;160657.03;;;21.53;31.50
7940;BME280;4015;48.888;9.226;2023-03-01T11:11:24;160238.06;;;19.87;31.92
7940;BME280;4015;48.888;9.226;2023-03-01T11:13:54;160241.91;;;19.88;31.55
7940;BME280;4015;48.888;9.226;2023-03-01T11:16:29;160360.06;;;20.35;31.09
7940;BME280;4015;48.888;9.226;2023-03-01T11:19:07;160371.63;;;20.40;31.74
7940;BME280;4015;48.888;9.226;2023-03-01T11:21:59;160217.47;;;19.79;32.09
7940;BME280;4015;48.888;9.226;2023-03-01T11:24:48;160114.72;;;19.38;32.43
7940;BME280;4015;48.888;9.226;2023-03-01T11:27:18;160306.13;;;20.14;31.82
7940;BME280;4015;48.888;9.226;2023-03-01T11:29:51;160338.25;;;20.27;30.96
7940;BME280;4015;48.888;9.226;2023-03-01T11:32:19;160480.91;;;20.83;30.51
7940;BME280;4015;48.888;9.226;2023-03-01T11:37:33;160267.56;;;19.99;31.58
7940;BME280;4015;48.888;9.226;2023-03-01T11:40:17;160317.69;;;20.18;31.84
7940;BME280;4015;48.888;9.226;2023-03-01T11:42:55;160361.34;;;20.36;32.17
7940;BME280;4015;48.888;9.226;2023-03-01T11:45:26;160226.47;;;19.82;30.83
7940;BME280;4015;48.888;9.226;2023-03-01T11:48:02;159996.56;;;18.91;32.87
7940;BME280;4015;48.888;9.226;2023-03-01T11:53:31;160068.47;;;19.20;32.72
7940;BME280;4015;48.888;9.226;2023-03-01T11:56:08;160200.78;;;19.72;32.06
7940;BME280;4015;48.888;9.226;2023-03-01T11:58:45;160519.44;;;20.98;31.33
7940;BME280;4015;48.888;9.226;2023-03-01T12:04:26;160345.91;;;20.30;30.92
7940;BME280;4015;48.888;9.226;2023-03-01T12:07:01;160239.34;;;19.87;31.13
7940;BME280;4015;48.888;9.226;2023-03-01T12:12:44;160263.72;;;19.97;31.65
7940;BME280;4015;48.888;9.226;2023-03-01T12:16:05;160342.06;;;20.28;31.70
7940;BME280;4015;48.888;9.226;2023-03-01T12:19:04;160080.03;;;19.24;32.37
7940;BME280;4015;48.888;9.226;2023-03-01T12:33:04;160082.59;;;19.25;32.98
7940;BME280;4015;48.888;9.226;2023-03-01T12:35:47;160103.13;;;19.33;33.11
7940;BME280;4015;48.888;9.226;2023-03-01T12:38:33;160110.88;;;19.36;32.90
7940;BME280;4015;48.888;9.226;2023-03-01T12:44:11;160144.25;;;19.50;32.31
7940;BME280;4015;48.888;9.226;2023-03-01T12:49:54;160235.44;;;19.86;31.58
7940;BME280;4015;48.888;9.226;2023-03-01T12:52:42;160153.22;;;19.53;33.14
7940;BME280;4015;48.888;9.226;2023-03-01T12:55:26;159999.16;;;18.92;33.15
7940;BME280;4015;48.888;9.226;2023-03-01T12:58:02;160248.28;;;19.91;32.52
7940;BME280;4015;48.888;9.226;2023-03-01T13:03:25;159896.41;;;18.51;33.23
7940;BME280;4015;48.888;9.226;2023-03-01T13:11:22;160054.34;;;19.14;32.43
7940;BME280;4015;48.888;9.226;2023-03-01T13:13:48;160035.09;;;19.06;32.87
7940;BME280;4015;48.888;9.226;2023-03-01T13:19:13;160024.81;;;19.02;33.54
7940;BME280;4015;48.888;9.226;2023-03-01T13:21:41;160214.91;;;19.78;32.44
7940;BME280;4015;48.888;9.226;2023-03-01T13:24:32;160059.47;;;19.16;33.10
7940;BME280;4015;48.888;9.226;2023-03-01T13:29:46;159974.75;;;18.82;33.56
7940;BME280;4015;48.888;9.226;2023-03-01T13:32:35;160035.09;;;19.06;33.00
7940;BME280;4015;48.888;9.226;2023-03-01T13:35:40;159963.19;;;18.78;33.83
7940;BME280;4015;48.888;9.226;2023-03-01T13:41:07;159919.53;;;18.60;34.20
7940;BME280;4015;48.888;9.226;2023-03-01T13:43:35;159679.47;;;17.65;34.90
7940;BME280;4015;48.888;9.226;2023-03-01T13:46:08;159733.44;;;17.87;34.76
7940;BME280;4015;48.888;9.226;2023-03-01T13:48:34;159634.63;;;17.47;35.31
7940;BME280;4015;48.888;9.226;2023-03-01T13:51:06;159653.84;;;17.55;35.76
7940;BME280;4015;48.888;9.226;2023-03-01T13:53:37;159591.00;;;17.30;35.77
7940;BME280;4015;48.888;9.226;2023-03-01T13:56:11;159493.53;;;16.91;36.05
7940;BME280;4015;48.888;9.226;2023-03-01T14:01:22;159555.06;;;17.16;36.19
7940;BME280;4015;48.888;9.226;2023-03-01T14:03:47;159478.16;;;16.85;36.22
7940;BME280;4015;48.888;9.226;2023-03-01T14:06:15;159358.84;;;16.38;36.58
7940;BME280;4015;48.888;9.226;2023-03-01T14:08:43;159302.47;;;16.15;37.14
7940;BME280;4015;48.888;9.226;2023-03-01T14:14:09;159176.88;;;15.66;37.41
7940;BME280;4015;48.888;9.226;2023-03-01T14:19:29;159088.41;;;15.30;38.16
7940;BME280;4015;48.888;9.226;2023-03-01T14:24:47;159180.72;;;15.67;38.04
7940;BME280;4015;48.888;9.226;2023-03-01T14:27:14;159208.91;;;15.78;38.18
7940;BME280;4015;48.888;9.226;2023-03-01T14:29:40;159201.19;;;15.75;38.22
7940;BME280;4015;48.888;9.226;2023-03-01T14:32:21;159192.25;;;15.72;38.47
7940;BME280;4015;48.888;9.226;2023-03-01T14:34:49;159411.41;;;16.59;37.53
7940;BME280;4015;48.888;9.226;2023-03-01T14:37:24;159467.88;;;16.81;37.58
7940;BME280;4015;48.888;9.226;2023-03-01T14:39:51;159362.69;;;16.39;37.02
7940;BME280;4015;48.888;9.226;2023-03-01T14:42:17;159315.25;;;16.21;37.16
7940;BME280;4015;48.888;9.226;2023-03-01T14:44:47;159326.81;;;16.25;37.03
7940;BME280;4015;48.888;9.226;2023-03-01T14:47:16;159270.38;;;16.03;37.70
7940;BME280;4015;48.888;9.226;2023-03-01T14:49:44;159176.88;;;15.66;38.30
7940;BME280;4015;48.888;9.226;2023-03-01T14:52:20;158774.59;;;14.06;40.07
7940;BME280;4015;48.888;9.226;2023-03-01T14:54:48;158558.25;;;13.19;41.71
7940;BME280;4015;48.888;9.226;2023-03-01T14:57:25;158487.91;;;12.91;42.27
7940;BME280;4015;48.888;9.226;2023-03-01T14:59:53;158390.69;;;12.53;42.74
7940;BME280;4015;48.888;9.226;2023-03-01T15:02:22;158304.97;;;12.19;43.61
7940;BME280;4015;48.888;9.226;2023-03-01T15:04:56;158168.19;;;11.64;44.79